sim
Sign-in with your pilot id or email,
or register
Callsign
Passwort

Schedule Details

Flight Number: OEO7391
Departure: Charlotte Douglas International Airport (KCLT) at 03:40
Arrival: Munich Airport (EDDM) at 12:50

Weather Information
Getting current METAR information for KCLT 270852Z 00000KT 5SM BR FEW005 BKN020 17/17 A3000 RMK AO2 SLP153 T01720167 57005
Getting current METAR information for EDDM 270920Z 20008KT 150V250 9999 FEW035 12/04 Q1005 NOSIG

Schedule Frequency

Route Map